Terminal Aerodrome Forecast
Issued by NWS Pittsburgh, PA

Current Version | Previous Version | Graphics & Text | Print | Product List | Glossary On
Versions: 1 2 3 4 5 6 7 8 9 10 11 12 13 14 15 16 17 18 19 20 21 22 23 24 25 26 27 28 29 30
000
FTUS41 KPBZ 211600 AAC
TAFPIT
TAF AMD
KPIT 211630Z 2117/2218 32010KT P6SM -SHRA SCT015 BKN035
     FM220000 31008KT P6SM VCSH BKN010 OVC015
     FM220400 32005KT 5SM BR VCSH BKN008
     FM221500 33009KT P6SM BKN015 OVC025=

USA.gov is the U.S. government's official web portal to all federal, state and local government web resources and services.